sensor_id;sensor_type;location;lat;lon;timestamp;P1;durP1;ratioP1;P2;durP2;ratioP2
11267;SDS011;49397;47.474;9.416;2023-02-28T00:00:06;6.43;;;5.80;;
11267;SDS011;49397;47.474;9.416;2023-02-28T00:02:35;7.10;;;5.80;;
11267;SDS011;49397;47.474;9.416;2023-02-28T00:05:01;6.60;;;6.00;;
11267;SDS011;49397;47.474;9.416;2023-02-28T00:07:28;9.20;;;6.87;;
11267;SDS011;49397;47.474;9.416;2023-02-28T00:09:54;8.73;;;6.50;;
11267;SDS011;49397;47.474;9.416;2023-02-28T00:12:19;7.70;;;6.37;;
11267;SDS011;49397;47.474;9.416;2023-02-28T00:14:44;7.00;;;6.30;;
11267;SDS011;49397;47.474;9.416;2023-02-28T00:17:10;7.90;;;6.53;;
11267;SDS011;49397;47.474;9.416;2023-02-28T00:19:35;8.83;;;6.50;;
11267;SDS011;49397;47.474;9.416;2023-02-28T00:22:01;9.53;;;7.20;;
11267;SDS011;49397;47.474;9.416;2023-02-28T00:24:26;9.07;;;6.13;;
11267;SDS011;49397;47.474;9.416;2023-02-28T00:26:51;8.47;;;6.73;;
11267;SDS011;49397;47.474;9.416;2023-02-28T00:29:17;8.23;;;6.20;;
11267;SDS011;49397;47.474;9.416;2023-02-28T00:31:42;10.70;;;7.13;;
11267;SDS011;49397;47.474;9.416;2023-02-28T00:34:07;7.57;;;6.10;;
11267;SDS011;49397;47.474;9.416;2023-02-28T00:36:33;7.77;;;6.73;;
11267;SDS011;49397;47.474;9.416;2023-02-28T00:38:58;7.27;;;6.07;;
11267;SDS011;49397;47.474;9.416;2023-02-28T00:41:23;7.67;;;6.57;;
11267;SDS011;49397;47.474;9.416;2023-02-28T00:43:49;7.67;;;6.43;;
11267;SDS011;49397;47.474;9.416;2023-02-28T00:46:14;7.30;;;6.57;;
11267;SDS011;49397;47.474;9.416;2023-02-28T00:48:39;8.33;;;6.90;;
11267;SDS011;49397;47.474;9.416;2023-02-28T00:51:05;8.73;;;7.23;;
11267;SDS011;49397;47.474;9.416;2023-02-28T00:53:30;6.70;;;6.03;;
11267;SDS011;49397;47.474;9.416;2023-02-28T00:55:57;9.67;;;6.00;;
11267;SDS011;49397;47.474;9.416;2023-02-28T00:58:23;8.07;;;6.37;;
11267;SDS011;49397;47.474;9.416;2023-02-28T01:00:49;11.73;;;6.87;;
11267;SDS011;49397;47.474;9.416;2023-02-28T01:03:17;11.77;;;6.73;;
11267;SDS011;49397;47.474;9.416;2023-02-28T01:05:43;7.87;;;6.73;;
11267;SDS011;49397;47.474;9.416;2023-02-28T01:08:09;8.83;;;7.03;;
11267;SDS011;49397;47.474;9.416;2023-02-28T01:10:34;7.93;;;6.67;;
11267;SDS011;49397;47.474;9.416;2023-02-28T01:13:01;7.50;;;6.80;;
11267;SDS011;49397;47.474;9.416;2023-02-28T01:15:26;9.67;;;6.33;;
11267;SDS011;49397;47.474;9.416;2023-02-28T01:17:52;7.27;;;6.20;;
11267;SDS011;49397;47.474;9.416;2023-02-28T01:20:17;6.60;;;5.43;;
11267;SDS011;49397;47.474;9.416;2023-02-28T01:22:43;7.57;;;6.77;;
11267;SDS011;49397;47.474;9.416;2023-02-28T01:25:08;8.60;;;6.97;;
11267;SDS011;49397;47.474;9.416;2023-02-28T01:27:34;7.83;;;6.43;;
11267;SDS011;49397;47.474;9.416;2023-02-28T01:30:01;9.20;;;6.40;;
11267;SDS011;49397;47.474;9.416;2023-02-28T01:32:26;8.80;;;7.00;;
11267;SDS011;49397;47.474;9.416;2023-02-28T01:34:51;16.17;;;6.63;;
11267;SDS011;49397;47.474;9.416;2023-02-28T01:37:17;8.57;;;6.33;;
11267;SDS011;49397;47.474;9.416;2023-02-28T01:39:42;6.83;;;5.90;;
11267;SDS011;49397;47.474;9.416;2023-02-28T01:42:08;7.60;;;6.20;;
11267;SDS011;49397;47.474;9.416;2023-02-28T01:47:18;8.30;;;6.90;;
11267;SDS011;49397;47.474;9.416;2023-02-28T01:49:43;7.47;;;6.63;;
11267;SDS011;49397;47.474;9.416;2023-02-28T01:52:09;7.47;;;6.63;;
11267;SDS011;49397;47.474;9.416;2023-02-28T01:54:43;8.63;;;6.90;;
11267;SDS011;49397;47.474;9.416;2023-02-28T01:57:10;8.17;;;6.23;;
11267;SDS011;49397;47.474;9.416;2023-02-28T01:59:38;8.17;;;6.30;;
11267;SDS011;49397;47.474;9.416;2023-02-28T02:02:10;10.20;;;7.30;;
11267;SDS011;49397;47.474;9.416;2023-02-28T02:04:37;8.77;;;6.60;;
11267;SDS011;49397;47.474;9.416;2023-02-28T02:07:04;9.87;;;6.40;;
11267;SDS011;49397;47.474;9.416;2023-02-28T02:09:29;8.23;;;6.37;;
11267;SDS011;49397;47.474;9.416;2023-02-28T02:11:55;8.73;;;7.13;;
11267;SDS011;49397;47.474;9.416;2023-02-28T02:32:12;9.43;;;7.30;;
11267;SDS011;49397;47.474;9.416;2023-02-28T02:34:51;8.73;;;6.43;;
11267;SDS011;49397;47.474;9.416;2023-02-28T02:37:36;9.10;;;6.53;;
11267;SDS011;49397;47.474;9.416;2023-02-28T02:40:05;7.80;;;6.20;;
11267;SDS011;49397;47.474;9.416;2023-02-28T02:42:55;8.83;;;7.03;;
11267;SDS011;49397;47.474;9.416;2023-02-28T02:45:25;8.37;;;6.87;;
11267;SDS011;49397;47.474;9.416;2023-02-28T02:47:51;9.93;;;7.13;;
11267;SDS011;49397;47.474;9.416;2023-02-28T02:50:19;7.17;;;6.47;;
11267;SDS011;49397;47.474;9.416;2023-02-28T02:52:48;8.57;;;6.10;;
11267;SDS011;49397;47.474;9.416;2023-02-28T02:55:16;6.97;;;6.07;;
11267;SDS011;49397;47.474;9.416;2023-02-28T03:00:08;9.53;;;6.87;;
11267;SDS011;49397;47.474;9.416;2023-02-28T03:02:34;8.23;;;5.97;;
11267;SDS011;49397;47.474;9.416;2023-02-28T03:05:01;7.63;;;6.13;;
11267;SDS011;49397;47.474;9.416;2023-02-28T03:07:28;8.67;;;7.03;;
11267;SDS011;49397;47.474;9.416;2023-02-28T03:09:54;8.90;;;7.00;;
11267;SDS011;49397;47.474;9.416;2023-02-28T03:12:20;7.53;;;6.47;;
11267;SDS011;49397;47.474;9.416;2023-02-28T03:17:21;8.30;;;6.23;;
11267;SDS011;49397;47.474;9.416;2023-02-28T03:30:29;8.47;;;6.90;;
11267;SDS011;49397;47.474;9.416;2023-02-28T03:33:00;6.57;;;5.97;;
11267;SDS011;49397;47.474;9.416;2023-02-28T03:35:28;9.40;;;7.17;;
11267;SDS011;49397;47.474;9.416;2023-02-28T03:37:58;7.83;;;6.20;;
11267;SDS011;49397;47.474;9.416;2023-02-28T03:40:26;8.23;;;6.97;;
11267;SDS011;49397;47.474;9.416;2023-02-28T03:42:54;8.60;;;7.00;;
11267;SDS011;49397;47.474;9.416;2023-02-28T03:45:21;7.87;;;6.40;;
11267;SDS011;49397;47.474;9.416;2023-02-28T03:47:51;9.43;;;7.03;;
11267;SDS011;49397;47.474;9.416;2023-02-28T03:52:44;7.40;;;6.60;;
11267;SDS011;49397;47.474;9.416;2023-02-28T03:55:12;8.10;;;7.13;;
11267;SDS011;49397;47.474;9.416;2023-02-28T03:57:43;8.53;;;6.97;;
11267;SDS011;49397;47.474;9.416;2023-02-28T04:00:16;8.27;;;5.70;;
11267;SDS011;49397;47.474;9.416;2023-02-28T04:02:42;6.67;;;6.03;;
11267;SDS011;49397;47.474;9.416;2023-02-28T04:05:07;6.73;;;6.00;;
11267;SDS011;49397;47.474;9.416;2023-02-28T04:07:33;6.40;;;5.80;;
11267;SDS011;49397;47.474;9.416;2023-02-28T04:09:59;7.50;;;5.87;;
11267;SDS011;49397;47.474;9.416;2023-02-28T04:12:24;7.83;;;6.50;;
11267;SDS011;49397;47.474;9.416;2023-02-28T04:14:50;7.27;;;6.57;;
11267;SDS011;49397;47.474;9.416;2023-02-28T04:17:15;6.43;;;5.83;;
11267;SDS011;49397;47.474;9.416;2023-02-28T04:19:41;8.37;;;6.87;;
11267;SDS011;49397;47.474;9.416;2023-02-28T04:22:07;8.93;;;6.17;;
11267;SDS011;49397;47.474;9.416;2023-02-28T04:24:33;9.13;;;6.90;;
11267;SDS011;49397;47.474;9.416;2023-02-28T04:26:58;9.47;;;7.20;;
11267;SDS011;49397;47.474;9.416;2023-02-28T04:29:24;8.40;;;6.47;;
11267;SDS011;49397;47.474;9.416;2023-02-28T04:31:50;9.63;;;6.97;;
11267;SDS011;49397;47.474;9.416;2023-02-28T04:34:18;8.90;;;7.10;;
11267;SDS011;49397;47.474;9.416;2023-02-28T04:36:44;7.27;;;6.33;;
11267;SDS011;49397;47.474;9.416;2023-02-28T04:39:11;10.37;;;6.63;;
11267;SDS011;49397;47.474;9.416;2023-02-28T04:41:36;9.10;;;7.03;;
11267;SDS011;49397;47.474;9.416;2023-02-28T04:44:01;8.30;;;6.53;;
11267;SDS011;49397;47.474;9.416;2023-02-28T04:46:27;7.90;;;6.67;;
11267;SDS011;49397;47.474;9.416;2023-02-28T04:48:52;8.63;;;7.10;;
11267;SDS011;49397;47.474;9.416;2023-02-28T04:51:19;8.97;;;7.57;;
11267;SDS011;49397;47.474;9.416;2023-02-28T04:53:45;8.50;;;6.97;;
11267;SDS011;49397;47.474;9.416;2023-02-28T04:56:14;8.63;;;7.00;;
11267;SDS011;49397;47.474;9.416;2023-02-28T04:58:40;9.50;;;7.27;;
11267;SDS011;49397;47.474;9.416;2023-02-28T05:03:43;7.97;;;7.17;;
11267;SDS011;49397;47.474;9.416;2023-02-28T05:06:08;10.63;;;7.27;;
11267;SDS011;49397;47.474;9.416;2023-02-28T05:08:34;7.60;;;6.73;;
11267;SDS011;49397;47.474;9.416;2023-02-28T05:10:59;7.20;;;6.17;;
11267;SDS011;49397;47.474;9.416;2023-02-28T05:13:28;9.40;;;7.03;;
11267;SDS011;49397;47.474;9.416;2023-02-28T05:15:53;8.73;;;6.40;;
11267;SDS011;49397;47.474;9.416;2023-02-28T05:18:19;9.60;;;6.57;;
11267;SDS011;49397;47.474;9.416;2023-02-28T05:20:44;10.73;;;7.30;;
11267;SDS011;49397;47.474;9.416;2023-02-28T05:23:13;9.37;;;7.23;;
11267;SDS011;49397;47.474;9.416;2023-02-28T05:25:38;8.37;;;7.27;;
11267;SDS011;49397;47.474;9.416;2023-02-28T05:28:04;9.77;;;7.73;;
11267;SDS011;49397;47.474;9.416;2023-02-28T05:30:30;7.87;;;6.80;;
11267;SDS011;49397;47.474;9.416;2023-02-28T05:32:56;8.47;;;7.00;;
11267;SDS011;49397;47.474;9.416;2023-02-28T05:35:22;8.37;;;7.10;;
11267;SDS011;49397;47.474;9.416;2023-02-28T05:37:47;8.13;;;7.33;;
11267;SDS011;49397;47.474;9.416;2023-02-28T05:40:13;9.03;;;7.43;;
11267;SDS011;49397;47.474;9.416;2023-02-28T05:42:38;9.40;;;7.27;;
11267;SDS011;49397;47.474;9.416;2023-02-28T05:45:04;9.93;;;8.10;;
11267;SDS011;49397;47.474;9.416;2023-02-28T05:47:30;9.27;;;6.97;;
11267;SDS011;49397;47.474;9.416;2023-02-28T05:49:55;8.77;;;7.30;;
11267;SDS011;49397;47.474;9.416;2023-02-28T05:52:20;9.67;;;6.70;;
11267;SDS011;49397;47.474;9.416;2023-02-28T05:54:46;9.37;;;6.40;;
11267;SDS011;49397;47.474;9.416;2023-02-28T05:57:12;12.60;;;8.80;;
11267;SDS011;49397;47.474;9.416;2023-02-28T05:59:37;9.80;;;7.03;;
11267;SDS011;49397;47.474;9.416;2023-02-28T06:02:05;11.90;;;6.77;;
11267;SDS011;49397;47.474;9.416;2023-02-28T06:04:31;9.50;;;7.20;;
11267;SDS011;49397;47.474;9.416;2023-02-28T06:06:56;9.47;;;6.97;;
11267;SDS011;49397;47.474;9.416;2023-02-28T06:09:22;9.23;;;7.33;;
11267;SDS011;49397;47.474;9.416;2023-02-28T06:11:48;10.77;;;7.70;;
11267;SDS011;49397;47.474;9.416;2023-02-28T06:14:17;9.43;;;7.67;;
11267;SDS011;49397;47.474;9.416;2023-02-28T06:16:43;9.80;;;7.10;;
11267;SDS011;49397;47.474;9.416;2023-02-28T06:19:08;12.23;;;7.73;;
11267;SDS011;49397;47.474;9.416;2023-02-28T06:21:34;9.33;;;7.80;;
11267;SDS011;49397;47.474;9.416;2023-02-28T06:23:59;10.57;;;8.07;;
11267;SDS011;49397;47.474;9.416;2023-02-28T06:26:25;10.03;;;7.47;;
11267;SDS011;49397;47.474;9.416;2023-02-28T06:28:50;8.90;;;7.17;;
11267;SDS011;49397;47.474;9.416;2023-02-28T06:31:16;10.33;;;7.03;;
11267;SDS011;49397;47.474;9.416;2023-02-28T06:33:43;12.90;;;7.37;;
11267;SDS011;49397;47.474;9.416;2023-02-28T06:36:09;8.40;;;7.37;;
11267;SDS011;49397;47.474;9.416;2023-02-28T06:38:35;10.13;;;7.57;;
11267;SDS011;49397;47.474;9.416;2023-02-28T06:41:01;9.10;;;7.03;;
11267;SDS011;49397;47.474;9.416;2023-02-28T06:43:31;10.37;;;7.77;;
11267;SDS011;49397;47.474;9.416;2023-02-28T06:45:58;10.60;;;8.40;;
11267;SDS011;49397;47.474;9.416;2023-02-28T06:48:25;10.10;;;7.77;;
11267;SDS011;49397;47.474;9.416;2023-02-28T06:50:51;9.60;;;7.57;;
11267;SDS011;49397;47.474;9.416;2023-02-28T06:53:16;10.60;;;7.30;;
11267;SDS011;49397;47.474;9.416;2023-02-28T06:55:41;13.70;;;7.30;;
11267;SDS011;49397;47.474;9.416;2023-02-28T06:58:07;10.70;;;7.80;;
11267;SDS011;49397;47.474;9.416;2023-02-28T07:00:43;11.47;;;7.67;;
11267;SDS011;49397;47.474;9.416;2023-02-28T07:03:09;9.90;;;7.63;;
11267;SDS011;49397;47.474;9.416;2023-02-28T07:05:35;9.27;;;6.77;;
11267;SDS011;49397;47.474;9.416;2023-02-28T07:08:02;10.63;;;7.37;;
11267;SDS011;49397;47.474;9.416;2023-02-28T07:10:28;8.97;;;6.87;;
11267;SDS011;49397;47.474;9.416;2023-02-28T07:12:53;9.37;;;7.53;;
11267;SDS011;49397;47.474;9.416;2023-02-28T07:15:19;9.33;;;7.40;;
11267;SDS011;49397;47.474;9.416;2023-02-28T07:17:44;13.23;;;7.33;;
11267;SDS011;49397;47.474;9.416;2023-02-28T07:20:09;8.30;;;7.40;;
11267;SDS011;49397;47.474;9.416;2023-02-28T07:22:35;11.33;;;7.87;;
11267;SDS011;49397;47.474;9.416;2023-02-28T07:25:00;10.90;;;7.67;;
11267;SDS011;49397;47.474;9.416;2023-02-28T07:27:26;9.90;;;8.03;;
11267;SDS011;49397;47.474;9.416;2023-02-28T07:29:51;12.77;;;7.63;;
11267;SDS011;49397;47.474;9.416;2023-02-28T07:32:17;11.93;;;7.93;;
11267;SDS011;49397;47.474;9.416;2023-02-28T07:34:43;10.60;;;7.70;;
11267;SDS011;49397;47.474;9.416;2023-02-28T07:37:09;10.67;;;7.23;;
11267;SDS011;49397;47.474;9.416;2023-02-28T07:39:34;9.43;;;7.47;;
11267;SDS011;49397;47.474;9.416;2023-02-28T07:41:59;9.43;;;7.17;;
11267;SDS011;49397;47.474;9.416;2023-02-28T07:44:25;10.23;;;7.50;;
11267;SDS011;49397;47.474;9.416;2023-02-28T07:46:51;8.80;;;7.10;;
11267;SDS011;49397;47.474;9.416;2023-02-28T07:49:16;10.13;;;7.40;;
11267;SDS011;49397;47.474;9.416;2023-02-28T07:51:41;11.27;;;7.90;;
11267;SDS011;49397;47.474;9.416;2023-02-28T07:54:07;9.17;;;7.63;;
11267;SDS011;49397;47.474;9.416;2023-02-28T07:56:32;14.70;;;8.30;;
11267;SDS011;49397;47.474;9.416;2023-02-28T07:58:58;11.57;;;7.57;;
11267;SDS011;49397;47.474;9.416;2023-02-28T08:01:23;11.10;;;7.67;;
11267;SDS011;49397;47.474;9.416;2023-02-28T08:03:49;7.97;;;6.83;;
11267;SDS011;49397;47.474;9.416;2023-02-28T08:06:18;11.30;;;7.23;;
11267;SDS011;49397;47.474;9.416;2023-02-28T08:08:44;11.63;;;7.90;;
11267;SDS011;49397;47.474;9.416;2023-02-28T08:11:09;9.80;;;7.90;;
11267;SDS011;49397;47.474;9.416;2023-02-28T08:13:35;10.67;;;7.40;;
11267;SDS011;49397;47.474;9.416;2023-02-28T08:16:01;10.07;;;7.70;;
11267;SDS011;49397;47.474;9.416;2023-02-28T08:18:27;11.97;;;8.70;;
11267;SDS011;49397;47.474;9.416;2023-02-28T08:20:52;11.27;;;8.03;;
11267;SDS011;49397;47.474;9.416;2023-02-28T08:23:18;8.63;;;7.57;;
11267;SDS011;49397;47.474;9.416;2023-02-28T08:25:43;9.83;;;8.33;;
11267;SDS011;49397;47.474;9.416;2023-02-28T08:28:08;11.63;;;8.67;;
11267;SDS011;49397;47.474;9.416;2023-02-28T08:30:34;11.13;;;8.10;;
11267;SDS011;49397;47.474;9.416;2023-02-28T08:32:59;9.40;;;6.90;;
11267;SDS011;49397;47.474;9.416;2023-02-28T08:35:24;8.37;;;6.77;;
11267;SDS011;49397;47.474;9.416;2023-02-28T08:37:50;11.07;;;8.50;;
11267;SDS011;49397;47.474;9.416;2023-02-28T08:40:16;10.47;;;7.80;;
11267;SDS011;49397;47.474;9.416;2023-02-28T08:42:46;9.93;;;7.50;;
11267;SDS011;49397;47.474;9.416;2023-02-28T08:45:11;12.07;;;7.80;;
11267;SDS011;49397;47.474;9.416;2023-02-28T08:47:37;10.23;;;7.93;;
11267;SDS011;49397;47.474;9.416;2023-02-28T08:50:03;9.90;;;8.10;;
11267;SDS011;49397;47.474;9.416;2023-02-28T08:52:28;11.27;;;8.40;;
11267;SDS011;49397;47.474;9.416;2023-02-28T08:54:54;10.43;;;7.93;;
11267;SDS011;49397;47.474;9.416;2023-02-28T08:57:19;9.30;;;7.43;;
11267;SDS011;49397;47.474;9.416;2023-02-28T08:59:44;10.20;;;7.97;;
11267;SDS011;49397;47.474;9.416;2023-02-28T09:02:12;11.70;;;8.30;;
11267;SDS011;49397;47.474;9.416;2023-02-28T09:04:37;12.77;;;8.20;;
11267;SDS011;49397;47.474;9.416;2023-02-28T09:07:03;11.37;;;8.97;;
11267;SDS011;49397;47.474;9.416;2023-02-28T09:09:28;12.87;;;8.47;;
11267;SDS011;49397;47.474;9.416;2023-02-28T09:11:55;11.80;;;8.10;;
11267;SDS011;49397;47.474;9.416;2023-02-28T09:14:20;12.03;;;8.17;;
11267;SDS011;49397;47.474;9.416;2023-02-28T09:16:46;10.43;;;7.70;;
11267;SDS011;49397;47.474;9.416;2023-02-28T09:19:11;10.50;;;8.57;;
11267;SDS011;49397;47.474;9.416;2023-02-28T09:21:37;9.33;;;6.87;;
11267;SDS011;49397;47.474;9.416;2023-02-28T09:24:02;9.53;;;8.07;;
11267;SDS011;49397;47.474;9.416;2023-02-28T09:26:28;9.97;;;7.73;;
11267;SDS011;49397;47.474;9.416;2023-02-28T09:28:54;8.73;;;7.27;;
11267;SDS011;49397;47.474;9.416;2023-02-28T09:31:24;11.20;;;7.83;;
11267;SDS011;49397;47.474;9.416;2023-02-28T09:33:51;9.23;;;7.60;;
11267;SDS011;49397;47.474;9.416;2023-02-28T09:36:16;10.63;;;8.47;;
11267;SDS011;49397;47.474;9.416;2023-02-28T09:38:42;9.77;;;8.17;;
11267;SDS011;49397;47.474;9.416;2023-02-28T09:41:17;17.57;;;8.37;;
11267;SDS011;49397;47.474;9.416;2023-02-28T09:43:45;10.67;;;8.30;;
11267;SDS011;49397;47.474;9.416;2023-02-28T09:46:33;12.10;;;7.27;;
11267;SDS011;49397;47.474;9.416;2023-02-28T09:48:57;13.50;;;8.50;;
11267;SDS011;49397;47.474;9.416;2023-02-28T09:54:10;10.60;;;7.70;;
11267;SDS011;49397;47.474;9.416;2023-02-28T09:56:37;12.57;;;8.10;;
11267;SDS011;49397;47.474;9.416;2023-02-28T09:59:10;11.37;;;8.50;;
11267;SDS011;49397;47.474;9.416;2023-02-28T10:01:58;11.60;;;7.60;;
11267;SDS011;49397;47.474;9.416;2023-02-28T10:07:53;11.03;;;7.93;;
11267;SDS011;49397;47.474;9.416;2023-02-28T10:09:59;10.67;;;8.43;;
11267;SDS011;49397;47.474;9.416;2023-02-28T10:12:27;10.57;;;8.20;;
11267;SDS011;49397;47.474;9.416;2023-02-28T10:14:52;10.07;;;8.60;;
11267;SDS011;49397;47.474;9.416;2023-02-28T10:17:20;11.10;;;8.07;;
11267;SDS011;49397;47.474;9.416;2023-02-28T10:19:50;12.10;;;8.53;;
11267;SDS011;49397;47.474;9.416;2023-02-28T10:22:37;12.57;;;7.93;;
11267;SDS011;49397;47.474;9.416;2023-02-28T10:25:16;12.47;;;8.53;;
11267;SDS011;49397;47.474;9.416;2023-02-28T10:27:42;12.43;;;8.33;;
11267;SDS011;49397;47.474;9.416;2023-02-28T10:30:09;12.17;;;8.50;;
11267;SDS011;49397;47.474;9.416;2023-02-28T10:32:35;11.87;;;8.30;;
11267;SDS011;49397;47.474;9.416;2023-02-28T10:37:27;10.90;;;7.93;;
11267;SDS011;49397;47.474;9.416;2023-02-28T10:39:52;11.83;;;8.93;;
11267;SDS011;49397;47.474;9.416;2023-02-28T10:42:19;11.33;;;7.90;;
11267;SDS011;49397;47.474;9.416;2023-02-28T10:44:44;10.97;;;8.17;;
11267;SDS011;49397;47.474;9.416;2023-02-28T10:47:16;12.67;;;8.70;;
11267;SDS011;49397;47.474;9.416;2023-02-28T10:49:46;11.10;;;8.23;;
11267;SDS011;49397;47.474;9.416;2023-02-28T10:52:12;12.60;;;8.13;;
11267;SDS011;49397;47.474;9.416;2023-02-28T10:54:37;11.20;;;7.93;;
11267;SDS011;49397;47.474;9.416;2023-02-28T10:57:20;12.17;;;8.17;;
11267;SDS011;49397;47.474;9.416;2023-02-28T10:59:50;10.77;;;8.20;;
11267;SDS011;49397;47.474;9.416;2023-02-28T11:02:28;11.33;;;8.13;;
11267;SDS011;49397;47.474;9.416;2023-02-28T11:04:54;13.37;;;8.30;;
11267;SDS011;49397;47.474;9.416;2023-02-28T11:07:20;10.23;;;8.33;;
11267;SDS011;49397;47.474;9.416;2023-02-28T11:09:55;11.07;;;8.20;;
11267;SDS011;49397;47.474;9.416;2023-02-28T11:12:37;12.07;;;7.70;;
11267;SDS011;49397;47.474;9.416;2023-02-28T11:15:04;10.10;;;8.50;;
11267;SDS011;49397;47.474;9.416;2023-02-28T11:17:31;11.73;;;8.23;;
11267;SDS011;49397;47.474;9.416;2023-02-28T11:19:58;11.97;;;8.27;;
11267;SDS011;49397;47.474;9.416;2023-02-28T11:22:27;13.30;;;8.43;;
11267;SDS011;49397;47.474;9.416;2023-02-28T11:24:57;12.80;;;8.70;;
11267;SDS011;49397;47.474;9.416;2023-02-28T11:27:24;12.93;;;8.63;;
11267;SDS011;49397;47.474;9.416;2023-02-28T11:29:50;11.63;;;8.27;;
11267;SDS011;49397;47.474;9.416;2023-02-28T11:32:18;10.63;;;8.07;;
11267;SDS011;49397;47.474;9.416;2023-02-28T11:34:44;10.47;;;7.97;;
11267;SDS011;49397;47.474;9.416;2023-02-28T11:37:12;10.77;;;7.80;;
11267;SDS011;49397;47.474;9.416;2023-02-28T11:39:37;13.37;;;8.70;;
11267;SDS011;49397;47.474;9.416;2023-02-28T11:44:54;12.47;;;8.03;;
11267;SDS011;49397;47.474;9.416;2023-02-28T11:47:38;12.23;;;8.20;;
11267;SDS011;49397;47.474;9.416;2023-02-28T11:52:54;10.40;;;8.13;;
11267;SDS011;49397;47.474;9.416;2023-02-28T11:57:55;14.27;;;8.73;;
11267;SDS011;49397;47.474;9.416;2023-02-28T12:05:48;10.83;;;8.80;;
11267;SDS011;49397;47.474;9.416;2023-02-28T12:13:27;12.17;;;8.57;;
11267;SDS011;49397;47.474;9.416;2023-02-28T12:24:17;15.60;;;9.33;;
11267;SDS011;49397;47.474;9.416;2023-02-28T12:26:47;13.13;;;9.27;;
11267;SDS011;49397;47.474;9.416;2023-02-28T12:29:19;13.33;;;8.80;;
11267;SDS011;49397;47.474;9.416;2023-02-28T12:32:31;10.30;;;8.37;;
11267;SDS011;49397;47.474;9.416;2023-02-28T12:34:37;12.03;;;8.40;;
11267;SDS011;49397;47.474;9.416;2023-02-28T12:37:10;12.60;;;9.37;;
11267;SDS011;49397;47.474;9.416;2023-02-28T12:39:39;12.50;;;9.50;;
11267;SDS011;49397;47.474;9.416;2023-02-28T12:44:49;13.10;;;8.87;;
11267;SDS011;49397;47.474;9.416;2023-02-28T12:47:16;16.40;;;8.77;;
11267;SDS011;49397;47.474;9.416;2023-02-28T12:52:37;13.93;;;8.90;;
11267;SDS011;49397;47.474;9.416;2023-02-28T12:57:56;9.53;;;8.33;;
11267;SDS011;49397;47.474;9.416;2023-02-28T13:00:25;12.03;;;8.87;;
11267;SDS011;49397;47.474;9.416;2023-02-28T13:10:16;13.90;;;9.17;;
11267;SDS011;49397;47.474;9.416;2023-02-28T13:12:50;14.10;;;10.63;;
11267;SDS011;49397;47.474;9.416;2023-02-28T13:15:23;14.87;;;9.43;;
11267;SDS011;49397;47.474;9.416;2023-02-28T13:17:53;10.30;;;8.87;;
11267;SDS011;49397;47.474;9.416;2023-02-28T13:20:26;17.47;;;9.07;;
11267;SDS011;49397;47.474;9.416;2023-02-28T13:22:53;15.23;;;10.67;;
11267;SDS011;49397;47.474;9.416;2023-02-28T13:27:47;13.30;;;9.20;;
11267;SDS011;49397;47.474;9.416;2023-02-28T13:35:46;11.50;;;8.33;;
11267;SDS011;49397;47.474;9.416;2023-02-28T13:38:15;12.70;;;9.77;;
11267;SDS011;49397;47.474;9.416;2023-02-28T13:40:40;15.53;;;10.13;;
11267;SDS011;49397;47.474;9.416;2023-02-28T13:43:07;11.97;;;8.67;;
11267;SDS011;49397;47.474;9.416;2023-02-28T13:45:33;13.17;;;9.43;;
11267;SDS011;49397;47.474;9.416;2023-02-28T13:48:04;16.80;;;9.00;;
11267;SDS011;49397;47.474;9.416;2023-02-28T13:50:34;11.53;;;9.13;;
11267;SDS011;49397;47.474;9.416;2023-02-28T13:58:09;12.63;;;9.57;;
11267;SDS011;49397;47.474;9.416;2023-02-28T14:03:41;19.57;;;10.70;;
11267;SDS011;49397;47.474;9.416;2023-02-28T14:06:28;14.43;;;10.50;;
11267;SDS011;49397;47.474;9.416;2023-02-28T14:08:59;11.73;;;9.00;;
11267;SDS011;49397;47.474;9.416;2023-02-28T14:11:26;17.87;;;10.53;;
11267;SDS011;49397;47.474;9.416;2023-02-28T14:13:52;16.07;;;10.13;;
11267;SDS011;49397;47.474;9.416;2023-02-28T14:16:20;14.67;;;10.10;;
11267;SDS011;49397;47.474;9.416;2023-02-28T14:19:00;15.03;;;10.50;;
11267;SDS011;49397;47.474;9.416;2023-02-28T14:21:33;17.73;;;10.30;;
11267;SDS011;49397;47.474;9.416;2023-02-28T14:36:44;15.73;;;11.13;;
11267;SDS011;49397;47.474;9.416;2023-02-28T14:39:16;15.17;;;11.53;;
11267;SDS011;49397;47.474;9.416;2023-02-28T14:41:44;17.67;;;11.17;;
11267;SDS011;49397;47.474;9.416;2023-02-28T14:44:43;17.60;;;11.83;;
11267;SDS011;49397;47.474;9.416;2023-02-28T14:47:02;16.73;;;10.43;;
11267;SDS011;49397;47.474;9.416;2023-02-28T14:52:03;14.20;;;10.50;;
11267;SDS011;49397;47.474;9.416;2023-02-28T14:54:30;15.77;;;11.17;;
11267;SDS011;49397;47.474;9.416;2023-02-28T14:56:55;18.10;;;11.30;;
11267;SDS011;49397;47.474;9.416;2023-02-28T14:59:26;15.60;;;10.73;;
11267;SDS011;49397;47.474;9.416;2023-02-28T15:02:07;18.57;;;11.67;;
11267;SDS011;49397;47.474;9.416;2023-02-28T15:04:32;20.60;;;12.27;;
11267;SDS011;49397;47.474;9.416;2023-02-28T15:07:11;17.43;;;11.33;;
11267;SDS011;49397;47.474;9.416;2023-02-28T15:09:38;17.70;;;11.53;;
11267;SDS011;49397;47.474;9.416;2023-02-28T15:12:03;15.73;;;11.20;;
11267;SDS011;49397;47.474;9.416;2023-02-28T15:14:28;16.53;;;10.67;;
11267;SDS011;49397;47.474;9.416;2023-02-28T15:16:59;17.80;;;10.87;;
11267;SDS011;49397;47.474;9.416;2023-02-28T15:19:43;18.90;;;11.53;;
11267;SDS011;49397;47.474;9.416;2023-02-28T15:22:12;16.63;;;11.37;;
11267;SDS011;49397;47.474;9.416;2023-02-28T15:24:44;19.53;;;11.67;;
11267;SDS011;49397;47.474;9.416;2023-02-28T15:27:15;16.10;;;10.83;;
11267;SDS011;49397;47.474;9.416;2023-02-28T15:29:42;16.20;;;10.57;;
11267;SDS011;49397;47.474;9.416;2023-02-28T15:32:16;17.80;;;12.37;;
11267;SDS011;49397;47.474;9.416;2023-02-28T15:34:45;15.90;;;11.63;;
11267;SDS011;49397;47.474;9.416;2023-02-28T15:39:53;19.03;;;12.00;;
11267;SDS011;49397;47.474;9.416;2023-02-28T15:42:20;20.33;;;12.27;;
11267;SDS011;49397;47.474;9.416;2023-02-28T15:44:45;15.67;;;11.03;;
11267;SDS011;49397;47.474;9.416;2023-02-28T15:47:20;20.50;;;12.83;;
11267;SDS011;49397;47.474;9.416;2023-02-28T15:49:51;16.87;;;11.00;;
11267;SDS011;49397;47.474;9.416;2023-02-28T15:52:27;18.20;;;11.10;;
11267;SDS011;49397;47.474;9.416;2023-02-28T15:54:56;17.03;;;11.30;;
11267;SDS011;49397;47.474;9.416;2023-02-28T15:57:26;15.70;;;10.67;;
11267;SDS011;49397;47.474;9.416;2023-02-28T15:59:56;15.07;;;11.20;;
11267;SDS011;49397;47.474;9.416;2023-02-28T16:02:29;18.27;;;12.97;;
11267;SDS011;49397;47.474;9.416;2023-02-28T16:04:56;21.43;;;12.80;;
11267;SDS011;49397;47.474;9.416;2023-02-28T16:07:21;20.63;;;12.83;;
11267;SDS011;49397;47.474;9.416;2023-02-28T16:09:46;20.10;;;11.93;;
11267;SDS011;49397;47.474;9.416;2023-02-28T16:12:13;18.20;;;12.70;;
11267;SDS011;49397;47.474;9.416;2023-02-28T16:14:38;17.20;;;10.80;;
11267;SDS011;49397;47.474;9.416;2023-02-28T16:17:14;18.97;;;11.00;;
11267;SDS011;49397;47.474;9.416;2023-02-28T16:19:41;17.37;;;11.43;;
11267;SDS011;49397;47.474;9.416;2023-02-28T16:22:07;19.90;;;11.67;;
11267;SDS011;49397;47.474;9.416;2023-02-28T16:24:33;19.30;;;12.37;;
11267;SDS011;49397;47.474;9.416;2023-02-28T16:26:58;19.77;;;12.00;;
11267;SDS011;49397;47.474;9.416;2023-02-28T16:29:28;19.87;;;12.60;;
11267;SDS011;49397;47.474;9.416;2023-02-28T16:31:54;18.40;;;11.50;;
11267;SDS011;49397;47.474;9.416;2023-02-28T16:34:20;16.30;;;11.60;;
11267;SDS011;49397;47.474;9.416;2023-02-28T16:36:46;17.67;;;11.77;;
11267;SDS011;49397;47.474;9.416;2023-02-28T16:39:12;15.93;;;10.90;;
11267;SDS011;49397;47.474;9.416;2023-02-28T16:41:37;20.70;;;12.47;;
11267;SDS011;49397;47.474;9.416;2023-02-28T16:44:03;19.83;;;12.43;;
11267;SDS011;49397;47.474;9.416;2023-02-28T16:46:34;20.53;;;12.03;;